createdAt,value
2019-05-25T00:01:05.518Z,25.90
2019-05-25T00:03:37.617Z,25.90
2019-05-25T00:06:08.762Z,25.90
2019-05-25T00:08:40.175Z,26.00
2019-05-25T00:11:13.029Z,26.00
2019-05-25T00:13:44.962Z,26.00
2019-05-25T00:16:17.359Z,26.00
2019-05-25T00:18:49.293Z,26.10
2019-05-25T00:21:20.343Z,26.10
2019-05-25T00:23:51.272Z,26.20
2019-05-25T00:26:22.224Z,26.20
2019-05-25T00:28:53.355Z,26.20
2019-05-25T00:31:25.318Z,26.30
2019-05-25T00:33:56.266Z,26.30
2019-05-25T00:36:28.207Z,26.30
2019-05-25T00:39:00.105Z,26.40
2019-05-25T00:41:31.283Z,26.50
2019-05-25T00:44:03.794Z,26.50
2019-05-25T00:46:35.879Z,26.60
2019-05-25T00:49:06.808Z,26.60
2019-05-25T00:51:37.793Z,26.70
2019-05-25T00:54:09.884Z,26.70
2019-05-25T00:56:41.064Z,26.70
2019-05-25T00:59:13.064Z,26.70
2019-05-25T01:01:44.260Z,26.80
2019-05-25T01:04:15.470Z,26.80
2019-05-25T01:06:47.437Z,26.90
2019-05-25T01:09:18.588Z,26.90
2019-05-25T01:11:49.736Z,27.00
2019-05-25T01:14:20.839Z,27.00
2019-05-25T01:16:52.125Z,27.00
2019-05-25T01:19:23.194Z,27.10
2019-05-25T01:21:55.405Z,27.20
2019-05-25T01:24:26.325Z,27.20
2019-05-25T01:26:57.407Z,27.30
2019-05-25T01:29:29.371Z,27.30
2019-05-25T01:32:01.696Z,27.40
2019-05-25T01:34:32.922Z,27.50
2019-05-25T01:37:04.183Z,27.50
2019-05-25T01:39:35.135Z,27.60
2019-05-25T01:42:06.192Z,27.70
2019-05-25T01:44:37.477Z,27.70
2019-05-25T01:47:08.647Z,27.80
2019-05-25T01:49:40.502Z,27.90
2019-05-25T01:52:11.705Z,27.90
2019-05-25T01:54:42.898Z,28.00
2019-05-25T01:57:14.938Z,28.10
2019-05-25T01:59:46.808Z,28.10
2019-05-25T02:02:18.035Z,28.20
2019-05-25T02:04:49.872Z,28.30
2019-05-25T02:07:24.281Z,28.40
2019-05-25T02:09:56.004Z,28.40
2019-05-25T02:12:27.980Z,28.50
2019-05-25T02:14:59.217Z,28.60
2019-05-25T02:17:31.331Z,28.60
2019-05-25T02:20:03.210Z,28.70
2019-05-25T02:22:35.148Z,28.80
2019-05-25T02:25:17.678Z,28.90
2019-05-25T02:27:41.201Z,29.00
2019-05-25T02:30:12.761Z,29.10
2019-05-25T02:32:45.323Z,29.20
2019-05-25T02:35:19.745Z,29.30
2019-05-25T02:37:51.544Z,29.40
2019-05-25T02:40:23.874Z,29.40
2019-05-25T02:42:55.790Z,29.50
2019-05-25T02:45:26.731Z,29.60
2019-05-25T02:47:57.779Z,29.60
2019-05-25T02:50:28.691Z,29.70
2019-05-25T02:52:59.777Z,29.80
2019-05-25T02:55:34.297Z,29.90
2019-05-25T02:58:03.275Z,30.00
2019-05-25T03:00:36.768Z,30.10
2019-05-25T03:03:08.048Z,30.20
2019-05-25T03:05:39.098Z,30.30
2019-05-25T03:08:10.303Z,30.30
2019-05-25T03:10:44.202Z,30.40
2019-05-25T03:13:16.279Z,30.40
2019-05-25T03:15:47.570Z,30.50
2019-05-25T03:18:19.581Z,30.60
2019-05-25T03:20:51.541Z,30.60
2019-05-25T03:23:23.615Z,30.60
2019-05-25T03:25:56.739Z,30.70
2019-05-25T03:28:28.570Z,30.80
2019-05-25T03:31:00.533Z,30.80
2019-05-25T03:33:33.042Z,30.80
2019-05-25T03:36:04.234Z,30.90
2019-05-25T03:38:35.224Z,30.90
2019-05-25T03:41:07.409Z,30.90
2019-05-25T03:43:39.659Z,31.00
2019-05-25T03:46:11.604Z,31.00
2019-05-25T03:48:42.983Z,31.10
2019-05-25T03:51:15.462Z,31.10
2019-05-25T03:53:46.806Z,31.20
2019-05-25T03:56:17.717Z,31.30
2019-05-25T03:58:48.763Z,31.40
2019-05-25T04:01:21.476Z,31.40
2019-05-25T04:03:53.472Z,31.50
2019-05-25T04:06:24.594Z,31.50
2019-05-25T04:08:56.531Z,31.60
2019-05-25T04:11:27.719Z,31.70
2019-05-25T04:13:59.396Z,31.80
2019-05-25T04:16:31.606Z,31.90
2019-05-25T04:19:02.526Z,32.00
2019-05-25T04:21:33.891Z,32.10
2019-05-25T04:24:05.210Z,32.10
2019-05-25T04:26:37.079Z,32.20
2019-05-25T04:29:08.106Z,32.20
2019-05-25T04:31:40.004Z,32.10
2019-05-25T04:34:11.123Z,32.20
2019-05-25T04:36:43.351Z,32.20
2019-05-25T04:39:14.461Z,32.30
2019-05-25T04:41:45.612Z,32.30
2019-05-25T04:44:16.631Z,32.40
2019-05-25T04:46:48.600Z,32.50
2019-05-25T04:49:19.798Z,32.60
2019-05-25T04:51:50.798Z,32.60
2019-05-25T04:54:21.959Z,32.70
2019-05-25T04:56:54.467Z,32.70
2019-05-25T04:59:25.875Z,32.70
2019-05-25T05:01:56.942Z,32.70
2019-05-25T05:04:27.992Z,32.80
2019-05-25T05:06:59.195Z,32.90
2019-05-25T05:09:32.470Z,33.00
2019-05-25T05:12:03.809Z,33.10
2019-05-25T05:14:34.966Z,33.20
2019-05-25T05:17:05.889Z,33.20
2019-05-25T05:19:37.046Z,33.20
2019-05-25T05:22:09.029Z,33.20
2019-05-25T05:24:42.784Z,33.30
2019-05-25T05:27:14.519Z,33.40
2019-05-25T05:29:47.412Z,33.50
2019-05-25T05:32:27.040Z,33.50
2019-05-25T05:34:50.808Z,33.60
2019-05-25T05:37:21.912Z,33.60
2019-05-25T05:39:54.081Z,33.70
2019-05-25T05:42:25.795Z,33.70
2019-05-25T05:44:58.350Z,33.70
2019-05-25T05:47:30.686Z,33.60
2019-05-25T05:50:03.267Z,33.60
2019-05-25T05:52:35.509Z,33.60
2019-05-25T05:55:07.247Z,33.60
2019-05-25T05:57:39.813Z,33.50
2019-05-25T06:00:12.678Z,33.50
2019-05-25T06:02:43.900Z,33.50
2019-05-25T06:05:15.130Z,33.40
2019-05-25T06:07:46.224Z,33.30
2019-05-25T06:10:17.468Z,33.10
2019-05-25T06:12:48.560Z,33.00
2019-05-25T06:15:22.639Z,32.90
2019-05-25T06:17:54.605Z,32.90
2019-05-25T06:20:26.707Z,32.80
2019-05-25T06:22:57.906Z,32.80
2019-05-25T06:25:30.619Z,32.80
2019-05-25T06:28:02.804Z,32.80
2019-05-25T06:30:34.113Z,32.90
2019-05-25T06:33:05.095Z,33.00
2019-05-25T06:35:37.316Z,33.10
2019-05-25T06:38:08.382Z,33.10
2019-05-25T06:40:39.582Z,33.30
2019-05-25T06:43:10.664Z,33.30
2019-05-25T06:45:41.808Z,33.30
2019-05-25T06:48:15.606Z,33.30
2019-05-25T06:50:46.600Z,33.40
2019-05-25T06:53:18.957Z,33.50
2019-05-25T06:55:51.476Z,33.50
2019-05-25T06:58:23.500Z,33.50
2019-05-25T07:00:54.596Z,33.60
2019-05-25T07:03:26.687Z,33.60
2019-05-25T07:05:57.833Z,33.70
2019-05-25T07:08:29.053Z,33.80
2019-05-25T07:11:00.293Z,33.80
2019-05-25T07:13:32.537Z,33.90
2019-05-25T07:16:03.905Z,33.90
2019-05-25T07:18:36.215Z,33.90
2019-05-25T07:21:08.291Z,33.90
2019-05-25T07:23:40.475Z,34.00
2019-05-25T07:26:13.948Z,34.00
2019-05-25T07:28:45.062Z,34.00
2019-05-25T07:31:17.284Z,34.10
2019-05-25T07:33:49.906Z,34.20
2019-05-25T07:36:21.107Z,34.20
2019-05-25T07:38:52.203Z,34.20
2019-05-25T07:41:23.458Z,34.30
2019-05-25T07:43:54.650Z,34.40
2019-05-25T07:46:26.613Z,34.40
2019-05-25T07:48:58.573Z,34.50
2019-05-25T07:51:29.804Z,34.50
2019-05-25T07:54:00.822Z,34.50
2019-05-25T07:56:31.951Z,34.50
2019-05-25T07:59:02.909Z,34.50
2019-05-25T08:01:34.116Z,34.60
2019-05-25T08:04:06.488Z,34.70
2019-05-25T08:06:37.593Z,34.70
2019-05-25T08:09:10.414Z,34.70
2019-05-25T08:11:42.557Z,34.70
2019-05-25T08:14:15.067Z,34.70
2019-05-25T08:16:47.226Z,34.70
2019-05-25T08:19:19.592Z,34.60
2019-05-25T08:21:51.421Z,34.60
2019-05-25T08:24:24.629Z,34.40
2019-05-25T08:26:55.825Z,34.00
2019-05-25T08:29:27.099Z,33.60
2019-05-25T08:31:58.709Z,33.10
2019-05-25T08:34:31.504Z,32.60
2019-05-25T08:37:03.485Z,32.10
2019-05-25T08:39:34.965Z,31.80
2019-05-25T08:42:07.499Z,31.50
2019-05-25T08:44:38.959Z,31.30
2019-05-25T08:47:10.209Z,31.20
2019-05-25T08:49:42.828Z,31.10
2019-05-25T08:52:15.186Z,31.00
2019-05-25T08:54:47.870Z,30.80
2019-05-25T08:57:19.987Z,30.70
2019-05-25T08:59:52.161Z,30.70
2019-05-25T09:02:23.451Z,30.70
2019-05-25T09:04:54.908Z,30.80
2019-05-25T09:07:26.904Z,30.80
2019-05-25T09:09:59.558Z,30.90
2019-05-25T09:12:31.052Z,31.00
2019-05-25T09:15:05.774Z,31.00
2019-05-25T09:17:37.032Z,31.10
2019-05-25T09:20:10.077Z,31.10
2019-05-25T09:22:41.958Z,31.00
2019-05-25T09:25:13.245Z,31.00
2019-05-25T09:27:44.691Z,30.90
2019-05-25T09:30:16.132Z,30.90
2019-05-25T09:32:48.646Z,30.80
2019-05-25T09:35:20.393Z,30.80
2019-05-25T09:37:52.215Z,30.80
2019-05-25T09:40:25.040Z,30.80
2019-05-25T09:42:56.747Z,30.70
2019-05-25T09:45:29.167Z,30.70
2019-05-25T09:48:00.858Z,30.80
2019-05-25T09:50:33.013Z,30.80
2019-05-25T09:53:04.507Z,30.90
2019-05-25T09:55:35.927Z,30.90
2019-05-25T09:58:07.366Z,31.00
2019-05-25T10:00:41.651Z,30.90
2019-05-25T10:03:14.689Z,30.90
2019-05-25T10:06:13.337Z,30.90
2019-05-25T10:08:54.387Z,30.80
2019-05-25T10:11:42.284Z,30.80
2019-05-25T10:14:18.436Z,30.70
2019-05-25T10:16:52.086Z,30.60
2019-05-25T10:19:25.604Z,30.40
2019-05-25T10:21:59.381Z,30.40
2019-05-25T10:24:31.342Z,30.30
2019-05-25T10:27:02.450Z,30.20
2019-05-25T10:29:37.070Z,30.20
2019-05-25T10:32:07.631Z,30.10
2019-05-25T10:34:39.935Z,30.00
2019-05-25T10:37:12.183Z,29.90
2019-05-25T10:39:44.186Z,29.90
2019-05-25T10:42:15.433Z,29.80
2019-05-25T10:44:46.639Z,29.70
2019-05-25T10:47:20.586Z,29.70
2019-05-25T10:49:51.710Z,29.60
2019-05-25T10:52:22.919Z,29.60
2019-05-25T10:54:55.507Z,29.60
2019-05-25T10:57:27.735Z,29.60
2019-05-25T10:59:58.845Z,29.50
2019-05-25T11:02:30.783Z,29.40
2019-05-25T11:05:01.893Z,29.40
2019-05-25T11:07:34.104Z,29.30
2019-05-25T11:10:06.504Z,29.30
2019-05-25T11:12:38.669Z,29.30
2019-05-25T11:15:12.340Z,29.30
2019-05-25T11:17:43.505Z,29.30
2019-05-25T11:20:15.554Z,29.30
2019-05-25T11:22:46.833Z,29.30
2019-05-25T11:25:19.651Z,29.20
2019-05-25T11:27:51.223Z,29.10
2019-05-25T11:30:22.827Z,29.00
2019-05-25T11:32:54.846Z,28.90
2019-05-25T11:35:27.079Z,28.70
2019-05-25T11:38:00.778Z,28.60
2019-05-25T11:40:32.691Z,28.50
2019-05-25T11:43:03.730Z,28.50
2019-05-25T11:45:35.312Z,28.30
2019-05-25T11:48:06.197Z,28.20
2019-05-25T11:50:37.603Z,28.10
2019-05-25T11:53:08.766Z,28.00
2019-05-25T11:55:39.763Z,27.90
2019-05-25T11:58:11.022Z,27.80
2019-05-25T12:00:43.339Z,27.80
2019-05-25T12:03:17.298Z,27.70
2019-05-25T12:05:54.882Z,27.60
2019-05-25T12:08:26.198Z,27.60
2019-05-25T12:10:58.188Z,27.40
2019-05-25T12:13:32.192Z,27.40
2019-05-25T12:16:03.897Z,27.30
2019-05-25T12:18:35.074Z,27.10
2019-05-25T12:21:07.195Z,27.00
2019-05-25T12:23:38.130Z,27.00
2019-05-25T12:26:10.211Z,26.90
2019-05-25T12:28:41.295Z,26.90
2019-05-25T12:31:12.689Z,26.80
2019-05-25T12:33:45.062Z,26.70
2019-05-25T12:36:17.090Z,26.70
2019-05-25T12:38:50.038Z,26.70
2019-05-25T12:41:21.331Z,26.70
2019-05-25T12:43:53.380Z,26.70
2019-05-25T12:46:24.378Z,26.70
2019-05-25T12:48:56.211Z,26.70
2019-05-25T12:51:27.498Z,26.70
2019-05-25T12:53:58.384Z,26.70
2019-05-25T12:56:29.684Z,26.70
2019-05-25T12:59:01.836Z,26.70
2019-05-25T13:01:34.034Z,26.70
2019-05-25T13:04:08.246Z,26.60
2019-05-25T13:06:38.403Z,26.60
2019-05-25T13:09:12.264Z,26.60
2019-05-25T13:11:44.518Z,26.60
2019-05-25T13:14:16.698Z,26.60
2019-05-25T13:16:47.659Z,26.60
2019-05-25T13:19:18.688Z,26.60
2019-05-25T13:21:50.723Z,26.60
2019-05-25T13:24:22.982Z,26.60
2019-05-25T13:26:54.393Z,26.70
2019-05-25T13:29:26.697Z,26.70
2019-05-25T13:32:00.239Z,26.70
2019-05-25T13:34:31.393Z,26.70
2019-05-25T13:37:02.602Z,26.70
2019-05-25T13:39:34.828Z,26.80
2019-05-25T13:42:06.988Z,26.80
2019-05-25T13:44:39.286Z,26.80
2019-05-25T13:47:11.832Z,26.80
2019-05-25T13:49:43.638Z,26.80
2019-05-25T13:52:14.586Z,26.80
2019-05-25T13:54:45.498Z,26.80
2019-05-25T13:57:17.456Z,26.70
2019-05-25T13:59:50.199Z,26.70
2019-05-25T14:02:21.619Z,26.70
2019-05-25T14:04:52.795Z,26.70
2019-05-25T14:07:23.890Z,26.60
2019-05-25T14:09:54.972Z,26.60
2019-05-25T14:12:27.710Z,26.60
2019-05-25T14:15:01.680Z,26.60
2019-05-25T14:17:31.833Z,26.60
2019-05-25T14:20:03.044Z,26.60
2019-05-25T14:22:35.116Z,26.60
2019-05-25T14:25:08.943Z,26.60
2019-05-25T14:27:40.911Z,26.60
2019-05-25T14:30:12.169Z,26.70
2019-05-25T14:32:54.407Z,26.70
2019-05-25T14:35:25.937Z,26.70
2019-05-25T14:37:57.221Z,26.70
2019-05-25T14:40:29.231Z,26.70
2019-05-25T14:43:02.916Z,26.70
2019-05-25T14:45:34.435Z,26.70
2019-05-25T14:48:05.468Z,26.70
2019-05-25T14:50:37.430Z,26.70
2019-05-25T14:53:09.193Z,26.60
2019-05-25T14:55:40.526Z,26.60
2019-05-25T14:58:12.992Z,26.50
2019-05-25T15:00:45.305Z,26.50
2019-05-25T15:03:17.652Z,26.50
2019-05-25T15:05:50.620Z,26.50
2019-05-25T15:08:22.085Z,26.50
2019-05-25T15:10:53.342Z,26.50
2019-05-25T15:13:24.751Z,26.50
2019-05-25T15:15:55.953Z,26.40
2019-05-25T15:18:30.422Z,26.40
2019-05-25T15:21:02.453Z,26.40
2019-05-25T15:23:34.991Z,26.30
2019-05-25T15:26:07.142Z,26.30
2019-05-25T15:28:38.198Z,26.30
2019-05-25T15:31:11.427Z,26.30
2019-05-25T15:33:43.660Z,26.30
2019-05-25T15:36:15.077Z,26.30
2019-05-25T15:38:46.193Z,26.30
2019-05-25T15:41:17.191Z,26.30
2019-05-25T15:43:48.495Z,26.30
2019-05-25T15:46:19.560Z,26.30
2019-05-25T15:48:51.596Z,26.30
2019-05-25T15:51:23.628Z,26.30
2019-05-25T15:53:55.649Z,26.30
2019-05-25T15:56:30.036Z,26.30
2019-05-25T15:59:02.465Z,26.30
2019-05-25T16:01:34.841Z,26.30
2019-05-25T16:04:09.047Z,26.30
2019-05-25T16:06:39.164Z,26.30
2019-05-25T16:09:10.493Z,26.40
2019-05-25T16:11:42.969Z,26.40
2019-05-25T16:14:14.965Z,26.40
2019-05-25T16:16:46.335Z,26.30
2019-05-25T16:19:17.692Z,26.30
2019-05-25T16:21:49.753Z,26.30
2019-05-25T16:24:22.171Z,26.30
2019-05-25T16:26:53.213Z,26.30
2019-05-25T16:29:24.615Z,26.30
2019-05-25T16:31:55.877Z,26.30
2019-05-25T16:34:27.855Z,26.30
2019-05-25T16:36:58.887Z,26.30
2019-05-25T16:39:31.004Z,26.30
2019-05-25T16:42:03.219Z,26.30
2019-05-25T16:44:34.409Z,26.40
2019-05-25T16:47:06.746Z,26.30
2019-05-25T16:49:42.745Z,26.30
2019-05-25T16:52:13.977Z,26.30
2019-05-25T16:54:45.956Z,26.40
2019-05-25T16:57:17.273Z,26.30
2019-05-25T16:59:49.215Z,26.30
2019-05-25T17:02:21.304Z,26.30
2019-05-25T17:04:53.309Z,26.30
2019-05-25T17:07:24.274Z,26.30
2019-05-25T17:09:58.090Z,26.30
2019-05-25T17:12:30.197Z,26.30
2019-05-25T17:15:01.297Z,26.30
2019-05-25T17:17:33.537Z,26.40
2019-05-25T17:20:06.214Z,26.30
2019-05-25T17:22:37.172Z,26.30
2019-05-25T17:25:09.644Z,26.30
2019-05-25T17:27:41.859Z,26.30
2019-05-25T17:30:12.874Z,26.30
2019-05-25T17:32:45.245Z,26.30
2019-05-25T17:35:17.263Z,26.30
2019-05-25T17:37:48.652Z,26.40
2019-05-25T17:40:19.528Z,26.40
2019-05-25T17:42:50.785Z,26.40
2019-05-25T17:45:23.248Z,26.40
2019-05-25T17:47:55.667Z,26.40
2019-05-25T17:50:26.882Z,26.40
2019-05-25T17:52:58.858Z,26.40
2019-05-25T17:55:32.896Z,26.40
2019-05-25T17:58:04.815Z,26.40
2019-05-25T18:00:38.354Z,26.40
2019-05-25T18:03:09.872Z,26.40
2019-05-25T18:05:41.279Z,26.40
2019-05-25T18:08:12.411Z,26.40
2019-05-25T18:10:53.007Z,26.40
2019-05-25T18:13:18.392Z,26.40
2019-05-25T18:15:50.033Z,26.40
2019-05-25T18:18:21.118Z,26.40
2019-05-25T18:20:52.455Z,26.40
2019-05-25T18:23:23.963Z,26.40
2019-05-25T18:25:55.099Z,26.40
2019-05-25T18:28:29.259Z,26.40
2019-05-25T18:31:00.389Z,26.40
2019-05-25T18:33:32.199Z,26.40
2019-05-25T18:36:04.639Z,26.40
2019-05-25T18:38:36.708Z,26.40
2019-05-25T18:41:08.789Z,26.40
2019-05-25T18:43:40.052Z,26.40
2019-05-25T18:46:11.185Z,26.30
2019-05-25T18:48:43.230Z,26.30
2019-05-25T18:51:15.407Z,26.30
2019-05-25T18:53:46.721Z,26.30
2019-05-25T18:56:19.379Z,26.30
2019-05-25T18:58:50.561Z,26.30
2019-05-25T19:01:21.727Z,26.30
2019-05-25T19:03:53.973Z,26.30
2019-05-25T19:06:25.173Z,26.20
2019-05-25T19:08:56.189Z,26.20
2019-05-25T19:11:27.486Z,26.20
2019-05-25T19:13:59.562Z,26.20
2019-05-25T19:16:31.481Z,26.20
2019-05-25T19:19:03.550Z,26.20
2019-05-25T19:21:35.393Z,26.20
2019-05-25T19:24:06.387Z,26.10
2019-05-25T19:26:38.539Z,26.10
2019-05-25T19:29:10.704Z,26.10
2019-05-25T19:31:41.817Z,26.10
2019-05-25T19:34:13.856Z,26.10
2019-05-25T19:36:46.211Z,26.10
2019-05-25T19:39:17.467Z,26.10
2019-05-25T19:41:49.403Z,26.10
2019-05-25T19:44:21.947Z,26.10
2019-05-25T19:46:53.364Z,26.10
2019-05-25T19:49:25.842Z,26.10
2019-05-25T19:52:00.534Z,26.10
2019-05-25T19:54:31.786Z,26.00
2019-05-25T19:57:06.842Z,26.00
2019-05-25T19:59:38.215Z,26.00
2019-05-25T20:02:12.016Z,26.00
2019-05-25T20:04:43.311Z,26.00
2019-05-25T20:07:14.355Z,26.00
2019-05-25T20:09:46.283Z,26.00
2019-05-25T20:12:18.793Z,25.90
2019-05-25T20:14:51.230Z,25.90
2019-05-25T20:17:22.319Z,26.00
2019-05-25T20:19:53.681Z,25.90
2019-05-25T20:22:24.746Z,25.90
2019-05-25T20:24:55.668Z,25.90
2019-05-25T20:27:27.928Z,25.90
2019-05-25T20:29:58.907Z,25.90
2019-05-25T20:32:30.107Z,25.90
2019-05-25T20:35:05.277Z,25.90
2019-05-25T20:37:37.477Z,25.90
2019-05-25T20:40:11.748Z,25.90
2019-05-25T20:42:47.133Z,25.90
2019-05-25T20:45:19.796Z,25.90
2019-05-25T20:47:51.793Z,25.90
2019-05-25T20:50:22.808Z,25.90
2019-05-25T20:52:54.994Z,25.90
2019-05-25T20:55:27.177Z,25.80
2019-05-25T20:57:59.931Z,25.80
2019-05-25T21:00:32.440Z,25.80
2019-05-25T21:03:06.729Z,25.80
2019-05-25T21:05:49.619Z,25.80
2019-05-25T21:08:11.879Z,25.70
2019-05-25T21:10:43.836Z,25.70
2019-05-25T21:13:14.955Z,25.70
2019-05-25T21:15:46.978Z,25.70
2019-05-25T21:18:19.075Z,25.70
2019-05-25T21:20:50.421Z,25.70
2019-05-25T21:23:22.152Z,25.70
2019-05-25T21:25:54.131Z,25.70
2019-05-25T21:28:25.129Z,25.70
2019-05-25T21:30:57.217Z,25.70
2019-05-25T21:33:29.345Z,25.60
2019-05-25T21:36:08.290Z,25.60
2019-05-25T21:38:33.817Z,25.60
2019-05-25T21:41:05.185Z,25.60
2019-05-25T21:43:37.967Z,25.60
2019-05-25T21:46:10.347Z,25.60
2019-05-25T21:48:42.458Z,25.60
2019-05-25T21:51:13.687Z,25.60
2019-05-25T21:53:45.771Z,25.60
2019-05-25T21:56:18.403Z,25.60
2019-05-25T21:58:50.584Z,25.60
2019-05-25T22:01:26.532Z,25.60
2019-05-25T22:04:00.386Z,25.60
2019-05-25T22:06:33.042Z,25.60
2019-05-25T22:09:05.307Z,25.60
2019-05-25T22:11:36.420Z,25.60
2019-05-25T22:14:07.315Z,25.60
2019-05-25T22:16:38.455Z,25.60
2019-05-25T22:19:09.579Z,25.60
2019-05-25T22:21:45.779Z,25.60
2019-05-25T22:24:14.629Z,25.60
2019-05-25T22:26:45.623Z,25.60
2019-05-25T22:29:17.845Z,25.60
2019-05-25T22:31:49.854Z,25.60
2019-05-25T22:34:22.263Z,25.60
2019-05-25T22:36:53.304Z,25.60
2019-05-25T22:39:25.339Z,25.50
2019-05-25T22:41:57.709Z,25.60
2019-05-25T22:44:31.991Z,25.50
2019-05-25T22:47:02.835Z,25.50
2019-05-25T22:49:34.988Z,25.50
2019-05-25T22:52:06.896Z,25.50
2019-05-25T22:54:38.823Z,25.50
2019-05-25T22:57:11.015Z,25.50
2019-05-25T22:59:42.999Z,25.50
2019-05-25T23:02:13.986Z,25.50
2019-05-25T23:04:45.300Z,25.50
2019-05-25T23:07:18.860Z,25.50
2019-05-25T23:09:49.853Z,25.50
2019-05-25T23:12:21.816Z,25.50
2019-05-25T23:14:53.171Z,25.50
2019-05-25T23:17:25.433Z,25.50
2019-05-25T23:19:57.523Z,25.50
2019-05-25T23:22:28.762Z,25.50
2019-05-25T23:25:00.774Z,25.50
2019-05-25T23:27:31.701Z,25.50
2019-05-25T23:30:02.672Z,25.50
2019-05-25T23:32:36.734Z,25.60
2019-05-25T23:35:09.041Z,25.60
2019-05-25T23:37:39.899Z,25.60
2019-05-25T23:40:14.139Z,25.60
2019-05-25T23:42:45.157Z,25.60
2019-05-25T23:45:16.297Z,25.60
2019-05-25T23:47:48.783Z,25.70
2019-05-25T23:50:20.730Z,25.70
2019-05-25T23:52:51.993Z,25.70
2019-05-25T23:55:23.440Z,25.70
2019-05-25T23:57:54.725Z,25.70
